MAYO2: W. D. Mayo Lock And Dam (L&D 14)

Data processed at Mon Sep 24 2018 22:32


All information presented herein is the property of the government of the United States of America and may be revised or deleted at any time without prior notice.
Dissemination of this information without the expressed written consent of the Public Affairs Office, Tulsa District U.S. Army Corps of Engineers is strictly prohibited.
These data are gathered electronically and, as presented, have not undergone any form of quality control. These data are not guaranteed to be valid or correct.
Go to home page.
Go to station list.
Go to home page.

Upstream stations:

Downstream station:
Previous Day
Next Day
Current Day
    
SHEF ID:       MAYO2     W.D. Mayo LD14
STATION TYPE:  NAVIGATION LOCK
Normal Pool:  Bottom =   411.00, Top =   413.00

               PRECIP ELEVATION   STORAGE   TW-ELEV LOCK-ELEV    INFLOW   RELEASE  AIR-TEMP  WIND-DIRWIND-SPEED REL-HUMID SOLAR-RAD   VOLTAGE  BAT-LOAD
                   in        ft     ac-ft        ft        ft       cfs       cfs         F       deg       mph         %      W/m2      volt      volt
              Ccp-Rev   Ccp-Rev   Ccp-Rev   Ccp-Rev   Ccp-Rev  Regi-Rev  Regi-Rev   Ccp-Rev   Ccp-Rev   Ccp-Rev   Ccp-Rev   Ccp-Rev   Ccp-Rev   Ccp-Rev
(US/Central)
09/24 00:00      0.00    412.34     14688    393.09    411.55     25511     24734     70.25    104.20      1.50     91.72      0.00     13.63     13.37
09/24 01:00      0.17    412.38     14749    393.07    411.52     25501     24759     69.12    113.40      1.80     96.66      0.00     13.62     13.37
09/24 02:00      0.47    412.42     14811    393.12    411.51     25263     24784     68.85    127.80      3.40     97.89      0.00     13.63     13.37
09/24 03:00      0.09    412.45     14857    393.14    411.48     25203     24806     68.47     81.20      1.70     98.49      0.00     13.62     13.37
09/24 04:00      0.00    412.43     14826    393.28    411.45     24766     24809     68.49     35.20      1.50     97.91      0.00     13.62     13.37
09/24 05:00      0.00    412.45     14857    393.43    411.43     25003     24809     68.34     64.00      1.30     97.75      0.00     13.62     13.37
09/24 06:00      0.00    412.37     14734    392.55    411.39     23445     24809     68.09     92.50      1.30     97.68      0.00     13.62     13.37
09/24 07:00      0.00    412.39     14765    392.44    411.36     21885     26339     68.14     27.50      0.90     97.67      0.00     13.62     13.37
09/24 08:00      0.00    412.43     14826    392.43    411.33     20292     16830     68.40     38.60      1.20     97.24      0.10     13.62     13.37
09/24 09:00      0.00    412.42     14811    392.34    411.31     18998     16824     68.86    111.00      1.30     96.54     24.70     13.62     13.37
09/24 10:00      0.00    412.44     14842    392.39    411.27     17064     16845     69.48     92.60      1.20     94.76     97.10     13.62     13.37
09/24 11:00      0.00    412.44     14842    392.50    411.24     16919     16849     71.56    105.20      1.60     90.98    225.00     13.62     13.37
09/24 12:00      0.00    412.45     14857    392.59    411.20     17000     16851     73.36    115.90      1.90     87.24    256.70     13.62     13.37
09/24 13:00      0.00    412.45     14857    392.62    411.17     16740     16853     75.65    105.90      0.70     82.84    290.70     13.63     13.37
09/24 14:00      0.00    412.46     14872    392.62    411.14     16624     16856     76.41    140.60      1.40     81.38    240.60     13.63     13.37
09/24 15:00      0.00    412.41     14795    392.78    411.11     16468     16847     76.78    108.60      2.90     81.58    234.90     13.63     13.37
09/24 16:00      0.00    412.38     14749    392.81    411.07     16309     16830     77.92    132.70      2.90     79.51    283.20     13.63     13.37
09/24 17:00      0.00    412.35     14703    392.76    411.05     16185     16818     79.34    129.70      2.60     77.33    275.00     13.63     13.37
09/24 18:00      0.00    412.31     14641    392.76    411.01     16248     16803     79.41    115.60      1.80     78.86     96.90     13.63     13.37
09/24 19:00      0.00    412.26     14565    392.80    410.98     16311     16791     78.33     88.50      0.70     83.58      7.30     13.64     13.37
09/24 20:00      0.00    412.25     14550    392.79    410.95     16305     16780     77.09     25.60      0.60     88.23      0.00     13.64     13.37
09/24 21:00      0.00    412.23     14520    392.80    410.94     16483     16772     75.92    123.80      2.20     90.74      0.00     13.63     13.37
09/24 22:00      0.00    412.21     14489    392.79    410.92      -901      -901     74.73    125.50      2.40     93.07      0.00     13.64     13.37
09/24 23:00      ----      ----      ----      ----      ----      ----      ----      ----      ----      ----      ----      ----      ----      ----